Wednesday, February 22, 2017, 12:23 PM EST

KUNV, State College, University Park Airport

Location: State College, PA, United States Lat: 40.85
Local Time: 12:23 PM EST (17:23 GMT) Lon: -77.85
Time Zone: US/Eastern Elev: 1240 ft

Show me the last for .
Show Decoded

2017-02-22 11:53 METAR KUNV 221653Z 18003KT 10SM OVC070 12/03 A2993 =
2017-02-22 10:53 METAR KUNV 221553Z 00000KT 10SM OVC070 11/02 A2996 =
2017-02-22 09:53 METAR KUNV 221453Z 00000KT 10SM OVC080 08/02 A2997 =
2017-02-22 08:53 METAR KUNV 221353Z 00000KT 10SM -DZ OVC080 06/03 A2999 =
2017-02-22 07:53 METAR KUNV 221253Z 00000KT 10SM OVC080 06/02 A2999 =
2017-02-22 06:53 METAR KUNV 221153Z 00000KT 10SM BKN110 07/01 A2998 =
2017-02-22 05:53 METAR KUNV 221053Z 00000KT 10SM OVC110 06/01 A2998 =
2017-02-22 05:35 METAR KUNV 221035Z AUTO 00000KT 10SM OVC100 07/01 A2998 RMK AO2 T00660005 =
2017-02-22 05:15 METAR KUNV 221015Z AUTO 00000KT 10SM OVC100 07/01 A2998 RMK AO2 T00680005 =
2017-02-22 04:55 METAR KUNV 220955Z AUTO 00000KT 10SM OVC100 07/01 A2998 RMK AO2 T00650010 =
2017-02-22 04:35 METAR KUNV 220935Z AUTO 00000KT 10SM OVC100 07/01 A2998 RMK AO2 T00680007 =
2017-02-22 04:15 METAR KUNV 220915Z AUTO 00000KT 10SM OVC100 07/00 A2997 RMK AO2 T00710003 =
2017-02-22 03:55 METAR KUNV 220855Z AUTO 00000KT 10SM OVC100 07/01 A2998 RMK AO2 T00680008 =
2017-02-22 03:35 METAR KUNV 220835Z AUTO 00000KT 10SM OVC100 07/01 A2997 RMK AO2 T00710006 =
2017-02-22 03:15 METAR KUNV 220815Z AUTO 00000KT 10SM OVC100 08/00 A2998 RMK AO2 T00770001 =
2017-02-22 02:55 METAR KUNV 220755Z AUTO 26003KT 10SM OVC100 08/00 A2998 RMK AO2 T00770000 =
2017-02-22 02:35 METAR KUNV 220735Z AUTO 26003KT 10SM OVC100 08/00 A2998 RMK AO2 T00770001 =
2017-02-22 02:15 METAR KUNV 220715Z AUTO 00000KT 10SM OVC100 08/00 A2999 RMK AO2 T00810001 =
2017-02-22 01:55 METAR KUNV 220655Z AUTO 23004KT 10SM OVC100 07/01 A3000 RMK AO2 T00740007 =
2017-02-22 01:35 METAR KUNV 220635Z AUTO 00000KT 10SM OVC090 08/00 A3000 RMK AO2 T00800003 =
2017-02-22 01:15 METAR KUNV 220615Z AUTO 00000KT 10SM OVC090 08/00 A3000 RMK AO2 T00800002 =
2017-02-22 00:55 METAR KUNV 220555Z AUTO 25003KT 10SM OVC090 08/00 A3001 RMK AO2 T00780003 10090
                 20077 =
2017-02-22 00:35 METAR KUNV 220535Z AUTO 30003KT 10SM OVC100 08/00 A3001 RMK AO2 T00790001 =
2017-02-22 00:15 METAR KUNV 220515Z AUTO 22004KT 10SM OVC100 09/00 A3001 RMK AO2 T00880000 =
2017-02-21 23:55 METAR KUNV 220455Z AUTO 22005KT 10SM SCT090 OVC110 09/00 A3001 RMK AO2 T00870000
                 =
2017-02-21 23:35 METAR KUNV 220435Z AUTO 22006KT 10SM OVC110 09/00 A3003 RMK AO2 T00880000 =
2017-02-21 23:15 METAR KUNV 220415Z AUTO 22008KT 10SM OVC110 09/00 A3003 RMK AO2 T00860000 =
2017-02-21 22:55 METAR KUNV 220355Z AUTO 22007KT 10SM OVC120 09/00 A3003 RMK AO2 T00850000
                 400990001 =
2017-02-21 22:35 METAR KUNV 220335Z AUTO 22006KT 10SM OVC110 08/00 A3003 RMK AO2 T00830000 =
2017-02-21 22:15 METAR KUNV 220315Z AUTO 22005KT 10SM BKN110 08/00 A3004 RMK AO2 T00830000 =
2017-02-21 20:53 METAR KUNV 220153Z 21005KT 10SM OVC110 08/00 A3008 =
2017-02-21 19:53 METAR KUNV 220053Z 21005KT 10SM BKN100 OVC120 09/00 A3009 =
2017-02-21 18:53 METAR KUNV 212353Z 21003KT 10SM SCT120 08/M01 A3010 =
2017-02-21 17:53 METAR KUNV 212253Z 18004KT 10SM SKC 09/M01 A3009 =
2017-02-21 16:53 METAR KUNV 212153Z 20007KT 10SM SKC 09/M02 A3008 =
2017-02-21 15:53 METAR KUNV 212053Z 20007KT 10SM SKC 09/M04 A3010 =
2017-02-21 14:53 METAR KUNV 211953Z 18008KT 10SM SKC 09/M04 A3010 =
2017-02-21 13:53 METAR KUNV 211853Z 18010G15KT 10SM SKC 09/M05 A3012 =
2017-02-21 12:53 METAR KUNV 211753Z 22010KT 10SM SKC 08/M06 A3015 =

Support USWX by starting your Amazon purchase here.